Latest Weather Observations for Sydney - Observatory Hill

IDN60901

Issued at 9:51 am EST Saturday 19 August 2017 (issued every 10 minutes, with the page automatically refreshed every 10 minutes)

About weather observations | Map of Sydney area stations | Latest observations for Sydney area | Other Formats
Station Details ID: 066062 Name: SYDNEY (OBSERVATORY HILL) Lat: -33.86 Lon: 151.21 Height: 39.0 m
Data from the previous 72 hours. | See also: Recent months at Sydney - Observatory Hill

* Apparent temperature (App Temp) for Sydney - Observatory Hill is calculated using temperature observations collected at Sydney - Observatory Hill and wind observations collected at Fort Denison, as wind observations are not currently provided for Sydney - Observatory Hill.

Date/Time
EST
Temp
°C
App
Temp
°C
Dew
Point
°C
Rel
Hum
%
Delta-T
°C
Wind Press
QNH
hPa
Press
MSL
hPa
Rain since
9am
mm
Dir  Spd
km/h
Gust
km/h
Spd
kts
Gust
kts
19/09:30am 11.7 4.9 -2.1 38 5.4 WSW 24 - 13 - 1016.9 1016.9 0.0
19/09:00am 11.1 3.2 -1.6 41 5.0 WSW 30 - 16 - 1016.7 1016.7 0.0
19/08:30am 10.5 2.2 -1.5 43 4.7 W 32 - 17 - 1016.4 1016.4 0.0
19/08:00am 10.3 2.8 -1.4 44 4.6 WSW 28 - 15 - 1016.1 1016.1 0.0
19/07:30am 9.9 3.1 -1.5 45 4.4 W 24 - 13 - 1015.8 1015.8 0.0
19/07:00am 9.2 2.1 -1.2 48 4.0 WSW 26 - 14 - 1015.6 1015.6 0.0
19/06:30am 8.9 3.0 -0.9 50 3.8 W 20 - 11 - 1015.3 1015.3 0.0
19/06:00am 8.9 3.2 -0.7 51 3.8 W 19 - 10 - 1014.9 1014.9 0.0
19/05:30am 8.8 3.1 -0.8 51 3.7 W 19 - 10 - 1014.4 1014.4 0.0
19/05:00am 8.9 3.2 -0.7 51 3.8 W 19 - 10 - 1014.0 1014.0 0.0
19/04:30am 9.2 2.6 -0.7 50 3.9 W 24 - 13 - 1013.9 1013.9 0.0
19/04:00am 9.6 3.0 -0.6 49 4.0 W 24 - 13 - 1013.8 1013.8 0.0
19/03:30am 9.8 3.5 -0.7 48 4.1 WSW 22 - 12 - 1013.4 1013.4 0.0
19/03:00am 9.9 3.3 -0.3 49 4.1 W 24 - 13 - 1013.2 1013.2 0.0
19/02:30am 10.0 3.0 -0.2 49 4.1 W 26 - 14 - 1013.0 1013.0 0.0
19/02:00am 10.1 3.5 -0.1 49 4.1 W 24 - 13 - 1013.1 1013.1 0.0
19/01:30am 10.4 4.8 -0.1 48 4.2 WSW 19 - 10 - 1013.3 1013.3 0.0
19/01:00am 10.6 4.0 -0.2 47 4.4 WSW 24 - 13 - 1013.1 1013.1 0.0
19/12:30am 10.8 2.7 -0.3 46 4.5 W 32 - 17 - 1012.8 1012.8 0.0
19/12:00am 11.1 2.4 -0.4 45 4.6 WSW 35 - 19 - 1012.6 1012.6 0.0
 
Date/Time
EST
Temp
°C
App
Temp
°C
Dew
Point
°C
Rel
Hum
%
Delta-T
°C
Wind Press
QNH
hPa
Press
MSL
hPa
Rain since
9am
mm
Dir  Spd
km/h
Gust
km/h
Spd
kts
Gust
kts
18/11:30pm 11.4 4.0 -0.4 44 4.8 WSW 28 - 15 - 1012.5 1012.5 0.0
18/11:00pm 11.5 2.4 -0.3 44 4.8 W 37 - 20 - 1011.7 1011.7 0.0
18/10:30pm 11.5 1.3 -0.3 44 4.8 W 43 - 23 - 1011.9 1011.9 0.0
18/10:00pm 11.9 2.0 -0.6 42 5.1 WSW 41 - 22 - 1011.6 1011.6 0.0
18/09:30pm 12.4 2.2 -0.5 41 5.3 W 43 - 23 - 1011.3 1011.3 0.0
18/09:00pm 12.5 4.2 -0.4 41 5.3 W 33 - 18 - 1011.1 1011.1 0.0
18/08:30pm 12.6 2.7 -1.0 39 5.5 W 41 - 22 - 1011.3 1011.3 0.0
18/08:00pm 12.7 4.6 -0.5 40 5.4 W 32 - 17 - 1011.1 1011.1 0.0
18/07:30pm 12.9 5.3 -1.8 36 5.8 W 28 - 15 - 1011.0 1011.0 0.0
18/07:00pm 13.0 5.5 -1.7 36 5.9 WSW 28 - 15 - 1011.3 1011.3 0.0
18/06:30pm 13.2 6.0 -1.9 35 6.0 WSW 26 - 14 - 1010.8 1010.8 0.0
18/06:00pm 13.2 6.0 -2.3 34 6.1 WSW 26 - 14 - 1010.5 1010.5 0.0
18/05:30pm 13.6 4.7 -1.9 34 6.2 W 35 - 19 - 1010.0 1010.0 0.0
18/05:00pm 14.0 4.4 -1.6 34 6.3 W 39 - 21 - 1009.4 1009.4 0.0
18/04:30pm 14.8 4.2 -3.0 29 7.0 W 43 - 23 - 1008.6 1008.6 0.0
18/04:00pm 15.3 4.8 -2.6 29 7.2 W 43 - 23 - 1007.9 1007.9 0.0
18/03:30pm 15.8 4.5 -1.7 30 7.2 W 48 - 26 - 1007.4 1007.4 0.0
18/03:00pm 16.0 2.1 -2.5 28 7.5 W 61 - 33 - 1006.6 1006.6 0.0
18/02:30pm 16.1 2.6 -2.4 28 7.5 W 59 - 32 - 1006.4 1006.4 0.0
18/02:00pm 16.2 3.6 -2.3 28 7.6 W 54 - 29 - 1005.9 1005.9 0.0
18/01:30pm 16.1 3.6 -1.9 29 7.4 W 54 - 29 - 1005.5 1005.5 0.0
18/01:00pm 16.0 4.9 -2.5 28 7.5 W 46 - 25 - 1006.0 1006.0 0.0
18/12:30pm 15.9 2.7 -2.6 28 7.5 W 57 - 31 - 1006.2 1006.2 0.0
18/12:00pm 15.7 3.1 -2.7 28 7.4 W 54 - 29 - 1005.6 1005.6 0.0
18/11:30am 15.8 3.4 -1.3 31 7.1 W 54 - 29 - 1006.2 1006.2 0.0
18/11:00am 15.0 4.1 -1.1 33 6.7 W 46 - 25 - 1006.8 1006.8 0.0
18/10:30am 14.8 5.4 -0.1 36 6.3 W 39 - 21 - 1007.4 1007.4 0.0
18/10:00am 14.1 3.8 -0.7 36 6.1 WNW 43 - 23 - 1007.6 1007.6 0.0
18/09:30am 13.7 3.7 0.7 41 5.5 W 43 - 23 - 1008.0 1008.0 0.0
18/09:00am 13.6 3.0 0.6 41 5.5 W 46 - 25 - 1008.5 1008.5 0.0
18/08:30am 12.9 3.6 0.6 43 5.2 W 39 - 21 - 1008.5 1008.5 0.0
18/08:00am 12.7 4.7 1.7 47 4.7 WNW 33 - 18 - 1008.7 1008.7 0.0
18/07:30am 12.3 6.1 1.9 49 4.5 W 24 - 13 - 1009.0 1009.0 0.0
18/07:00am 11.5 6.8 3.0 56 3.7 WNW 17 - 9 - 1008.5 1008.5 0.0
18/06:30am 11.8 6.2 3.6 57 3.6 NW 22 - 12 - 1008.5 1008.5 0.0
18/06:00am 12.0 6.0 3.3 55 3.9 W 24 - 13 - 1008.7 1008.7 0.0
18/05:30am 12.2 6.5 2.9 53 4.1 W 22 - 12 - 1008.6 1008.6 0.0
18/05:00am 12.5 6.0 2.4 50 4.4 W 26 - 14 - 1008.2 1008.2 0.0
18/04:30am 13.4 7.7 2.6 48 4.8 WSW 22 - 12 - 1008.5 1008.5 0.0
18/04:00am 13.6 8.2 2.2 46 5.0 W 20 - 11 - 1007.9 1007.9 0.0
18/03:30am 13.9 7.6 1.5 43 5.4 WSW 24 - 13 - 1007.6 1007.6 0.0
18/03:00am 14.6 8.1 0.5 38 6.0 WSW 24 - 13 - 1007.5 1007.5 0.0
18/02:30am 15.5 9.6 -1.1 32 6.9 W 20 - 11 - 1007.5 1007.5 0.0
18/02:00am 16.1 9.3 -1.9 29 7.4 W 24 - 13 - 1007.5 1007.5 0.0
18/01:30am 16.7 10.7 -1.9 28 7.7 W 20 - 11 - 1007.4 1007.4 0.0
18/01:00am 16.4 10.6 -1.7 29 7.5 WNW 19 - 10 - 1007.3 1007.3 0.0
18/12:30am 16.3 9.5 -1.7 29 7.4 NW 24 - 13 - 1007.2 1007.2 0.0
18/12:00am 16.8 10.5 -1.3 29 7.6 WNW 22 - 12 - 1007.6 1007.6 0.0
 
Date/Time
EST
Temp
°C
App
Temp
°C
Dew
Point
°C
Rel
Hum
%
Delta-T
°C
Wind Press
QNH
hPa
Press
MSL
hPa
Rain since
9am
mm
Dir  Spd
km/h
Gust
km/h
Spd
kts
Gust
kts
17/11:30pm 16.8 9.7 -0.9 30 7.5 WNW 26 - 14 - 1007.7 1007.7 0.0
17/11:00pm 16.3 10.1 0.0 33 7.0 WNW 22 - 12 - 1007.7 1007.7 0.0
17/10:30pm 16.2 11.4 0.3 34 6.8 WNW 15 - 8 - 1007.8 1007.8 0.0
17/10:00pm 16.0 10.8 0.2 34 6.8 NW 17 - 9 - 1007.6 1007.6 0.0
17/09:30pm 16.3 12.7 0.4 34 6.9 WNW 9 - 5 - 1008.0 1008.0 0.0
17/09:00pm 16.5 12.0 -0.2 32 7.2 NW 13 - 7 - 1007.8 1007.8 0.0
17/08:30pm 17.2 12.4 -0.1 31 7.4 NW 15 - 8 - 1007.7 1007.7 0.0
17/08:00pm 17.4 13.3 -0.3 30 7.6 NW 11 - 6 - 1007.7 1007.7 0.0
17/07:30pm 18.0 13.9 -0.3 29 7.9 WNW 11 - 6 - 1007.6 1007.6 0.0
17/07:00pm 18.5 12.9 -0.3 28 8.2 WNW 19 - 10 - 1007.4 1007.4 0.0
17/06:30pm 18.9 13.2 -1.0 26 8.5 WNW 19 - 10 - 1006.9 1006.9 0.0
17/06:00pm 19.2 13.3 -0.7 26 8.6 WNW 20 - 11 - 1006.4 1006.4 0.0
17/05:30pm 19.5 11.7 -1.0 25 8.8 W 30 - 16 - 1005.8 1005.8 0.0
17/05:00pm 20.1 11.8 -1.7 23 9.4 WNW 32 - 17 - 1005.4 1005.4 0.0
17/04:30pm 20.8 11.9 -1.7 22 9.7 WNW 35 - 19 - 1005.1 1005.1 0.0
17/04:00pm 21.4 14.0 -0.6 23 9.8 WNW 28 - 15 - 1004.8 1004.8 0.0
17/03:30pm 21.6 13.7 -1.6 21 10.1 W 30 - 16 - 1004.8 1004.8 0.0
17/03:00pm 22.0 13.7 -2.0 20 10.4 WNW 32 - 17 - 1005.0 1005.0 0.0
17/02:30pm 21.9 14.3 -2.0 20 10.3 WNW 28 - 15 - 1004.9 1004.9 0.0
17/02:00pm 22.1 15.2 0.0 23 10.0 WNW 26 - 14 - 1005.2 1005.2 0.0
17/01:30pm 21.9 16.3 -0.1 23 9.9 WNW 19 - 10 - 1005.4 1005.4 0.0
17/01:00pm 22.0 16.2 -0.1 23 10.0 WNW 20 - 11 - 1005.8 1005.8 0.0
17/12:30pm 21.0 16.6 0.2 25 9.3 WNW 13 - 7 - 1006.1 1006.1 0.0
17/12:00pm 20.5 14.9 0.9 27 8.9 WNW 20 - 11 - 1006.9 1006.9 0.0
17/11:30am 19.6 14.0 1.1 29 8.3 WNW 20 - 11 - 1007.6 1007.6 0.0
17/11:00am 18.5 16.3 1.1 31 7.8 SW 2 - 1 - 1008.0 1008.0 0.0
17/10:30am 17.7 12.5 0.4 31 7.6 WNW 17 - 9 - 1008.4 1008.4 0.0
17/10:00am 17.4 14.8 1.0 33 7.3 WNW 4 - 2 - 1008.8 1008.8 0.0
17/09:30am 16.5 13.1 1.8 37 6.5 WNW 9 - 5 - 1008.9 1008.9 0.0
17/09:00am 15.7 13.8 2.8 42 5.8 SW 2 - 1 - 1009.0 1009.0 0.0
17/08:30am 15.6 13.5 1.4 38 6.2 ESE 2 - 1 - 1009.1 1009.1 0.0
17/08:00am 15.0 12.2 1.9 41 5.8 N 6 - 3 - 1008.9 1008.9 0.0
17/07:30am 13.3 10.5 2.2 47 4.8 NNE 6 - 3 - 1008.7 1008.7 0.0
17/07:00am 11.7 9.5 3.2 56 3.8 NE 4 - 2 - 1008.5 1008.5 0.0
17/06:30am 11.5 9.2 2.5 54 3.9 ENE 4 - 2 - 1008.1 1008.1 0.0
17/06:00am 11.8 9.4 2.0 51 4.2 N 4 - 2 - 1007.9 1007.9 0.0
17/05:30am 11.6 9.2 2.1 52 4.1 N 4 - 2 - 1007.5 1007.5 0.0
17/05:00am 11.8 9.6 3.3 56 3.8 NNW 4 - 2 - 1007.7 1007.7 0.0
17/04:30am 12.2 10.2 4.4 59 3.5 E 4 - 2 - 1007.5 1007.5 0.0
17/04:00am 12.1 9.7 2.0 50 4.4 N 4 - 2 - 1007.4 1007.4 0.0
17/03:30am 12.2 9.7 1.8 49 4.5 NE 4 - 2 - 1007.4 1007.4 0.0
17/03:00am 12.6 10.3 2.5 50 4.4 NNW 4 - 2 - 1007.4 1007.4 0.0
17/02:30am 12.3 9.7 3.0 53 4.1 NNE 6 - 3 - 1007.8 1007.8 0.0
17/02:00am 12.4 9.6 2.0 49 4.5 ENE 6 - 3 - 1008.1 1008.1 0.0
17/01:30am 12.9 10.9 2.2 48 4.7 NNE 2 - 1 - 1008.2 1008.2 0.0
17/01:00am 13.0 10.2 2.3 48 4.7 NNW 6 - 3 - 1008.5 1008.5 0.0
17/12:30am 13.5 10.1 2.1 46 5.0 WNW 9 - 5 - 1008.7 1008.7 0.0
17/12:00am 14.0 11.0 2.3 45 5.2 W 7 - 4 - 1008.7 1008.7 0.0
 
Date/Time
EST
Temp
°C
App
Temp
°C
Dew
Point
°C
Rel
Hum
%
Delta-T
°C
Wind Press
QNH
hPa
Press
MSL
hPa
Rain since
9am
mm
Dir  Spd
km/h
Gust
km/h
Spd
kts
Gust
kts
16/11:30pm 14.1 11.4 2.4 45 5.2 WSW 6 - 3 - 1008.8 1008.8 0.0
16/11:00pm 14.6 11.3 2.5 44 5.4 NW 9 - 5 - 1009.0 1009.0 0.0
16/10:30pm 14.9 10.8 2.4 43 5.6 NW 13 - 7 - 1008.9 1008.9 0.0
16/10:00pm 15.2 10.9 3.0 44 5.5 NW 15 - 8 - 1009.0 1009.0 0.0
16/09:30pm 15.9 11.8 2.3 40 6.1 WNW 13 - 7 - 1008.6 1008.6 0.0
16/09:00pm 16.0 10.7 1.7 38 6.3 WNW 19 - 10 - 1008.5 1008.5 0.0
16/08:30pm 16.6 10.6 1.1 35 6.8 WNW 22 - 12 - 1008.2 1008.2 0.0
16/08:00pm 16.8 10.5 1.3 35 6.9 WNW 24 - 13 - 1007.6 1007.6 0.0
16/07:30pm 17.1 9.6 1.5 35 6.9 WNW 30 - 16 - 1007.2 1007.2 0.0
16/07:00pm 17.1 11.3 2.3 37 6.7 W 22 - 12 - 1006.8 1006.8 0.0
16/06:30pm 17.4 11.6 2.2 36 6.9 W 22 - 12 - 1006.5 1006.5 0.0
16/06:00pm 17.9 12.1 2.2 35 7.2 W 22 - 12 - 1006.2 1006.2 0.0
16/05:30pm 18.4 12.2 1.9 33 7.5 WNW 24 - 13 - 1005.5 1005.5 0.0
16/05:00pm 18.8 11.7 1.3 31 7.9 W 28 - 15 - 1004.8 1004.8 0.0
16/04:30pm 19.2 10.0 1.2 30 8.1 W 39 - 21 - 1004.4 1004.4 0.0
16/04:00pm 19.7 10.1 1.2 29 8.4 W 41 - 22 - 1004.0 1004.0 0.0
16/03:30pm 20.1 12.0 1.0 28 8.6 W 33 - 18 - 1003.7 1003.7 0.0
16/03:00pm 20.5 12.1 1.4 28 8.8 WNW 35 - 19 - 1003.3 1003.3 0.0
16/02:30pm 20.5 12.2 1.9 29 8.6 W 35 - 19 - 1002.9 1002.9 0.0
16/02:00pm 20.7 11.6 1.6 28 8.8 W 39 - 21 - 1002.6 1002.6 0.0
16/01:30pm 20.0 13.8 4.5 36 7.5 WNW 26 - 14 - 1002.5 1002.5 0.0
16/01:00pm 21.4 14.2 4.9 34 8.2 WNW 32 - 17 - 1002.3 1002.3 0.0
16/12:30pm 20.4 13.6 7.1 42 6.8 WNW 32 - 17 - 1002.5 1002.5 0.0
16/12:00pm 20.1 12.4 5.4 38 7.3 WNW 35 - 19 - 1002.3 1002.3 0.0
16/11:30am 19.8 10.5 5.8 40 6.9 WNW 44 - 24 - 1002.2 1002.2 0.0
16/11:00am 19.4 11.9 6.5 43 6.5 WNW 35 - 19 - 1002.1 1002.1 0.0
16/10:30am 19.7 11.1 6.4 42 6.7 WNW 41 - 22 - 1001.8 1001.8 0.0
16/10:00am 21.1 13.0 7.0 40 7.2 W 39 - 21 - 1001.9 1001.9 0.0

Latest Capital City Observations: Canberra | Sydney | Melbourne | Brisbane | Adelaide | Perth | Hobart | Darwin

Other Formats:

Comma delimited format used in spreadsheet applications
http://www.bom.gov.au/fwo/IDN60901/IDN60901.94768.axf

JavaScript Object Notation format (JSON) in row-major order
http://www.bom.gov.au/fwo/IDN60901/IDN60901.94768.json